sensor_id;sensor_type;location;lat;lon;timestamp;P1;durP1;ratioP1;P2;durP2;ratioP2
3046;SDS011;1533;44.816;20.420;2022-10-22T00:02:55;14.00;;;10.57;;
3046;SDS011;1533;44.816;20.420;2022-10-22T00:06:07;19.53;;;11.50;;
3046;SDS011;1533;44.816;20.420;2022-10-22T00:08:52;13.07;;;10.70;;
3046;SDS011;1533;44.816;20.420;2022-10-22T00:11:50;12.93;;;11.37;;
3046;SDS011;1533;44.816;20.420;2022-10-22T00:15:00;16.90;;;11.03;;
3046;SDS011;1533;44.816;20.420;2022-10-22T00:17:55;13.47;;;11.97;;
3046;SDS011;1533;44.816;20.420;2022-10-22T00:20:24;14.07;;;10.33;;
3046;SDS011;1533;44.816;20.420;2022-10-22T00:23:16;13.33;;;10.97;;
3046;SDS011;1533;44.816;20.420;2022-10-22T00:25:53;12.40;;;9.70;;
3046;SDS011;1533;44.816;20.420;2022-10-22T00:28:45;28.73;;;10.93;;
3046;SDS011;1533;44.816;20.420;2022-10-22T00:31:19;20.63;;;11.30;;
3046;SDS011;1533;44.816;20.420;2022-10-22T00:34:09;18.53;;;11.40;;
3046;SDS011;1533;44.816;20.420;2022-10-22T00:37:06;14.30;;;10.70;;
3046;SDS011;1533;44.816;20.420;2022-10-22T00:39:51;15.50;;;10.90;;
3046;SDS011;1533;44.816;20.420;2022-10-22T00:43:23;15.50;;;11.10;;
3046;SDS011;1533;44.816;20.420;2022-10-22T00:46:42;22.97;;;11.63;;
3046;SDS011;1533;44.816;20.420;2022-10-22T00:49:54;13.90;;;11.00;;
3046;SDS011;1533;44.816;20.420;2022-10-22T00:53:34;18.63;;;12.00;;
3046;SDS011;1533;44.816;20.420;2022-10-22T00:57:08;12.30;;;10.13;;
3046;SDS011;1533;44.816;20.420;2022-10-22T00:59:49;14.93;;;11.00;;
3046;SDS011;1533;44.816;20.420;2022-10-22T01:02:57;14.83;;;10.93;;
3046;SDS011;1533;44.816;20.420;2022-10-22T01:06:29;12.47;;;9.47;;
3046;SDS011;1533;44.816;20.420;2022-10-22T01:09:42;13.90;;;10.57;;
3046;SDS011;1533;44.816;20.420;2022-10-22T01:17:08;11.77;;;10.37;;
3046;SDS011;1533;44.816;20.420;2022-10-22T01:27:09;13.10;;;10.07;;
3046;SDS011;1533;44.816;20.420;2022-10-22T01:30:25;13.03;;;10.60;;
3046;SDS011;1533;44.816;20.420;2022-10-22T01:33:26;15.37;;;9.93;;
3046;SDS011;1533;44.816;20.420;2022-10-22T01:36:20;12.93;;;10.00;;
3046;SDS011;1533;44.816;20.420;2022-10-22T01:38:56;15.70;;;9.97;;
3046;SDS011;1533;44.816;20.420;2022-10-22T01:41:55;13.30;;;11.00;;
3046;SDS011;1533;44.816;20.420;2022-10-22T01:44:47;12.27;;;10.20;;
3046;SDS011;1533;44.816;20.420;2022-10-22T02:05:56;14.77;;;11.27;;
3046;SDS011;1533;44.816;20.420;2022-10-22T02:08:28;15.07;;;10.40;;
3046;SDS011;1533;44.816;20.420;2022-10-22T02:11:07;13.77;;;10.80;;
3046;SDS011;1533;44.816;20.420;2022-10-22T02:14:00;11.60;;;9.77;;
3046;SDS011;1533;44.816;20.420;2022-10-22T02:16:52;12.70;;;9.90;;
3046;SDS011;1533;44.816;20.420;2022-10-22T02:19:34;10.93;;;9.70;;
3046;SDS011;1533;44.816;20.420;2022-10-22T02:22:27;14.30;;;11.20;;
3046;SDS011;1533;44.816;20.420;2022-10-22T02:25:02;12.77;;;9.87;;
3046;SDS011;1533;44.816;20.420;2022-10-22T02:27:58;11.47;;;10.27;;
3046;SDS011;1533;44.816;20.420;2022-10-22T02:33:20;13.90;;;10.80;;
3046;SDS011;1533;44.816;20.420;2022-10-22T02:36:35;15.13;;;11.40;;
3046;SDS011;1533;44.816;20.420;2022-10-22T02:39:19;13.33;;;10.80;;
3046;SDS011;1533;44.816;20.420;2022-10-22T02:42:13;17.00;;;10.50;;
3046;SDS011;1533;44.816;20.420;2022-10-22T02:45:35;15.23;;;11.10;;
3046;SDS011;1533;44.816;20.420;2022-10-22T02:48:30;14.23;;;10.90;;
3046;SDS011;1533;44.816;20.420;2022-10-22T02:51:37;12.90;;;10.70;;
3046;SDS011;1533;44.816;20.420;2022-10-22T02:54:47;14.63;;;10.60;;
3046;SDS011;1533;44.816;20.420;2022-10-22T02:57:43;13.17;;;10.73;;
3046;SDS011;1533;44.816;20.420;2022-10-22T03:00:55;14.90;;;11.10;;
3046;SDS011;1533;44.816;20.420;2022-10-22T03:03:55;13.23;;;9.97;;
3046;SDS011;1533;44.816;20.420;2022-10-22T03:06:44;14.20;;;11.43;;
3046;SDS011;1533;44.816;20.420;2022-10-22T03:09:34;13.47;;;10.70;;
3046;SDS011;1533;44.816;20.420;2022-10-22T03:12:59;12.40;;;10.40;;
3046;SDS011;1533;44.816;20.420;2022-10-22T03:15:51;12.10;;;10.90;;
3046;SDS011;1533;44.816;20.420;2022-10-22T03:18:53;15.00;;;11.47;;
3046;SDS011;1533;44.816;20.420;2022-10-22T03:21:38;14.93;;;11.20;;
3046;SDS011;1533;44.816;20.420;2022-10-22T03:24:43;17.77;;;12.10;;
3046;SDS011;1533;44.816;20.420;2022-10-22T03:27:36;14.70;;;11.80;;
3046;SDS011;1533;44.816;20.420;2022-10-22T03:30:41;13.77;;;11.40;;
3046;SDS011;1533;44.816;20.420;2022-10-22T03:36:27;12.70;;;11.03;;
3046;SDS011;1533;44.816;20.420;2022-10-22T03:39:21;19.13;;;11.60;;
3046;SDS011;1533;44.816;20.420;2022-10-22T03:42:28;14.63;;;11.87;;
3046;SDS011;1533;44.816;20.420;2022-10-22T03:45:49;12.00;;;10.70;;
3046;SDS011;1533;44.816;20.420;2022-10-22T03:48:35;14.80;;;12.07;;
3046;SDS011;1533;44.816;20.420;2022-10-22T03:51:06;14.47;;;11.63;;
3046;SDS011;1533;44.816;20.420;2022-10-22T03:54:01;17.60;;;10.93;;
3046;SDS011;1533;44.816;20.420;2022-10-22T03:56:47;13.10;;;10.90;;
3046;SDS011;1533;44.816;20.420;2022-10-22T03:59:20;13.77;;;12.00;;
3046;SDS011;1533;44.816;20.420;2022-10-22T04:02:37;14.17;;;11.43;;
3046;SDS011;1533;44.816;20.420;2022-10-22T04:05:35;17.33;;;11.73;;
3046;SDS011;1533;44.816;20.420;2022-10-22T04:08:06;14.60;;;10.57;;
3046;SDS011;1533;44.816;20.420;2022-10-22T04:11:19;12.30;;;9.90;;
3046;SDS011;1533;44.816;20.420;2022-10-22T04:13:56;15.30;;;11.80;;
3046;SDS011;1533;44.816;20.420;2022-10-22T04:16:54;13.90;;;12.17;;
3046;SDS011;1533;44.816;20.420;2022-10-22T04:20:19;16.10;;;11.70;;
3046;SDS011;1533;44.816;20.420;2022-10-22T04:23:06;18.00;;;11.60;;
3046;SDS011;1533;44.816;20.420;2022-10-22T04:29:05;17.37;;;12.37;;
3046;SDS011;1533;44.816;20.420;2022-10-22T04:32:14;18.90;;;13.13;;
3046;SDS011;1533;44.816;20.420;2022-10-22T04:35:10;17.33;;;12.40;;
3046;SDS011;1533;44.816;20.420;2022-10-22T04:37:53;14.83;;;12.10;;
3046;SDS011;1533;44.816;20.420;2022-10-22T04:41:24;17.73;;;12.77;;
3046;SDS011;1533;44.816;20.420;2022-10-22T04:44:12;17.50;;;12.00;;
3046;SDS011;1533;44.816;20.420;2022-10-22T04:51:07;16.10;;;11.97;;
3046;SDS011;1533;44.816;20.420;2022-10-22T04:54:36;18.37;;;13.20;;
3046;SDS011;1533;44.816;20.420;2022-10-22T05:01:31;18.20;;;11.73;;
3046;SDS011;1533;44.816;20.420;2022-10-22T05:11:43;24.23;;;14.10;;
3046;SDS011;1533;44.816;20.420;2022-10-22T05:15:02;15.50;;;12.23;;
3046;SDS011;1533;44.816;20.420;2022-10-22T05:17:43;19.67;;;13.63;;
3046;SDS011;1533;44.816;20.420;2022-10-22T05:21:08;20.27;;;12.53;;
3046;SDS011;1533;44.816;20.420;2022-10-22T05:24:23;17.70;;;12.73;;
3046;SDS011;1533;44.816;20.420;2022-10-22T05:27:55;16.67;;;14.10;;
3046;SDS011;1533;44.816;20.420;2022-10-22T05:31:25;20.73;;;13.93;;
3046;SDS011;1533;44.816;20.420;2022-10-22T06:47:16;23.30;;;14.33;;
3046;SDS011;1533;44.816;20.420;2022-10-22T06:51:01;15.50;;;13.13;;
3046;SDS011;1533;44.816;20.420;2022-10-22T06:54:44;19.57;;;14.90;;
3046;SDS011;1533;44.816;20.420;2022-10-22T06:58:23;21.70;;;13.60;;
3046;SDS011;1533;44.816;20.420;2022-10-22T07:01:24;18.73;;;13.53;;
3046;SDS011;1533;44.816;20.420;2022-10-22T07:04:49;19.87;;;14.53;;
3046;SDS011;1533;44.816;20.420;2022-10-22T07:07:23;18.10;;;13.73;;
3046;SDS011;1533;44.816;20.420;2022-10-22T07:09:57;19.90;;;14.50;;
3046;SDS011;1533;44.816;20.420;2022-10-22T07:13:42;26.83;;;15.00;;
3046;SDS011;1533;44.816;20.420;2022-10-22T07:21:50;20.60;;;15.20;;
3046;SDS011;1533;44.816;20.420;2022-10-22T07:25:40;24.93;;;15.70;;
3046;SDS011;1533;44.816;20.420;2022-10-22T07:28:34;27.70;;;15.20;;
3046;SDS011;1533;44.816;20.420;2022-10-22T07:31:15;27.47;;;16.93;;
3046;SDS011;1533;44.816;20.420;2022-10-22T07:37:14;31.10;;;16.90;;
3046;SDS011;1533;44.816;20.420;2022-10-22T07:39:48;23.43;;;16.67;;
3046;SDS011;1533;44.816;20.420;2022-10-22T07:42:56;25.27;;;16.20;;
3046;SDS011;1533;44.816;20.420;2022-10-22T07:45:28;24.33;;;16.10;;
3046;SDS011;1533;44.816;20.420;2022-10-22T07:48:57;31.97;;;17.77;;
3046;SDS011;1533;44.816;20.420;2022-10-22T07:51:26;31.73;;;18.40;;
3046;SDS011;1533;44.816;20.420;2022-10-22T07:54:58;24.83;;;15.60;;
3046;SDS011;1533;44.816;20.420;2022-10-22T07:57:29;39.10;;;17.40;;
3046;SDS011;1533;44.816;20.420;2022-10-22T08:00:18;23.73;;;17.13;;
3046;SDS011;1533;44.816;20.420;2022-10-22T08:02:56;19.43;;;16.53;;
3046;SDS011;1533;44.816;20.420;2022-10-22T08:05:32;27.60;;;16.43;;
3046;SDS011;1533;44.816;20.420;2022-10-22T08:08:35;31.20;;;15.70;;
3046;SDS011;1533;44.816;20.420;2022-10-22T08:12:04;21.80;;;17.33;;
3046;SDS011;1533;44.816;20.420;2022-10-22T08:15:27;25.47;;;17.17;;
3046;SDS011;1533;44.816;20.420;2022-10-22T08:41:05;24.87;;;14.80;;
3046;SDS011;1533;44.816;20.420;2022-10-22T08:46:54;23.73;;;14.87;;
3046;SDS011;1533;44.816;20.420;2022-10-22T08:49:49;21.03;;;15.23;;
3046;SDS011;1533;44.816;20.420;2022-10-22T08:52:25;22.77;;;16.13;;
3046;SDS011;1533;44.816;20.420;2022-10-22T08:55:02;18.63;;;15.17;;
3046;SDS011;1533;44.816;20.420;2022-10-22T08:58:00;21.23;;;15.07;;
3046;SDS011;1533;44.816;20.420;2022-10-22T09:09:49;20.97;;;15.60;;
3046;SDS011;1533;44.816;20.420;2022-10-22T10:05:00;14.97;;;13.27;;
3046;SDS011;1533;44.816;20.420;2022-10-22T10:41:50;24.63;;;13.90;;
3046;SDS011;1533;44.816;20.420;2022-10-22T10:53:28;14.30;;;12.47;;
3046;SDS011;1533;44.816;20.420;2022-10-22T10:58:57;17.00;;;12.60;;
3046;SDS011;1533;44.816;20.420;2022-10-22T11:08:20;21.50;;;14.10;;
3046;SDS011;1533;44.816;20.420;2022-10-22T11:11:23;19.53;;;13.40;;
3046;SDS011;1533;44.816;20.420;2022-10-22T11:17:38;17.77;;;13.50;;
3046;SDS011;1533;44.816;20.420;2022-10-22T11:20:47;17.47;;;13.10;;
3046;SDS011;1533;44.816;20.420;2022-10-22T11:30:19;21.97;;;13.30;;
3046;SDS011;1533;44.816;20.420;2022-10-22T11:33:47;19.63;;;13.53;;
3046;SDS011;1533;44.816;20.420;2022-10-22T11:37:06;21.57;;;13.90;;
3046;SDS011;1533;44.816;20.420;2022-10-22T11:39:51;21.37;;;14.23;;
3046;SDS011;1533;44.816;20.420;2022-10-22T11:48:40;23.70;;;13.53;;
3046;SDS011;1533;44.816;20.420;2022-10-22T11:58:49;18.73;;;11.10;;
3046;SDS011;1533;44.816;20.420;2022-10-22T12:08:20;13.87;;;9.77;;
3046;SDS011;1533;44.816;20.420;2022-10-22T12:17:55;17.53;;;11.33;;
3046;SDS011;1533;44.816;20.420;2022-10-22T12:24:19;14.83;;;9.30;;
3046;SDS011;1533;44.816;20.420;2022-10-22T12:59:59;15.77;;;10.23;;
3046;SDS011;1533;44.816;20.420;2022-10-22T13:02:37;16.30;;;9.20;;
